TENO2: Tenkiller Lake

Data processed at Thu Jul 12 2018 23:31


All information presented herein is the property of the government of the United States of America and may be revised or deleted at any time without prior notice.
Dissemination of this information without the expressed written consent of the Public Affairs Office, Tulsa District U.S. Army Corps of Engineers is strictly prohibited.
These data are gathered electronically and, as presented, have not undergone any form of quality control. These data are not guaranteed to be valid or correct.
Go to home page.
Go to station list.

Upstream stations:

Downstream station:
Previous Day
Next Day
Current Day
    
SHEF ID:       TENO2     Tenkiller Lake
STATION TYPE:  Reservoir
Normal Pool:  Bottom =   594.50, Top =   632.00

               PRECIP PRECIP(A) ELEVATION   STORAGE   TW-ELEV    INFLOW   RELEASE  AIR-TEMP  WIND-DIRWIND-SPEED REL-HUMID SOLAR-RAD   VOLTAGE  BAT-LOAD
                   in        in        ft     ac-ft        ft       cfs       cfs         F       deg       mph         %      W/m2      volt      volt
              Ccp-Rev   Ccp-Rev   Ccp-Rev   Ccp-Rev   Ccp-Rev  Regi-Rev  Regi-Rev   Ccp-Rev   Ccp-Rev   Ccp-Rev   Ccp-Rev   Ccp-Rev   Ccp-Rev   Ccp-Rev
(US/Central)
07/10 00:00      0.00      0.00    630.98    655078    482.06        15        15     73.62    121.30      0.40    100.35      1.00     13.79     13.18
07/10 01:00      0.00      0.00    630.97    654952    482.06        15        15     72.95    121.40      0.40    100.42      0.00     13.78     13.24
07/10 02:00      0.00      0.00    630.99    655204    482.05       320        15     71.64    121.70      0.40    100.29      0.00     13.78     13.24
07/10 03:00      0.00      0.00    630.97    654952    482.04       320        15     70.75    118.50      0.40    100.35      0.00     13.78     13.24
07/10 04:00      0.00      0.00    630.98    655078    482.04       320        15     70.09    117.60      0.40    100.29      0.00     13.78     13.24
07/10 05:00      0.00      0.00    630.99    655204    482.04       320        15     69.76    120.30      0.40    100.35      0.00     13.78     13.24
07/10 06:00      0.00      0.00    630.98    655078    482.04       625        15     69.33    120.70      0.40    100.35      0.00     13.78     13.24
07/10 07:00      0.00      0.00    630.98    655078    482.04       320        15     69.22    120.60      0.40    100.35     10.00     13.78     13.24
07/10 08:00      0.00      0.00    630.99    655204    482.04       320        15     74.61    120.60      0.40    100.11     94.00     13.78     13.18
07/10 09:00      0.00      0.00    630.99    655204    482.04       332        15     82.08    165.80      0.39     85.28    180.00     13.78     13.18
07/10 10:00      0.00      0.00    630.99    655204    482.04       352        15     84.60    188.80      0.36     75.14    448.00     13.78     13.18
07/10 11:00      0.00      0.00    630.99    655204    482.33        67        75     85.15    236.10      0.24     72.40    577.00     13.78     13.18
07/10 12:00      0.00      0.00    630.99    655204    482.34        87       115     86.90    124.00      0.39     60.13    843.00     13.78     13.18
07/10 13:00      0.00      0.00    630.99    655204    482.34       101       115     88.77    130.60      2.41     49.38    917.00     13.78     13.18
07/10 14:00      0.00      0.00    630.99    655204    483.81       126       115     89.87    132.40      2.81     45.78    922.00     13.78     13.18
07/10 15:00      0.00      0.00    630.97    654952    486.99       142      3132     91.42    136.20      0.97     43.95    889.00     13.79     13.12
07/10 16:00      0.00      0.00    630.94    654575    486.94       159      3741     91.96    131.40      1.64     46.39    770.00     13.79     13.18
07/10 17:00      0.00      0.00    630.91    654197    486.89       226      3759     92.84    127.40      0.49     45.97    672.00     13.79     13.18
07/10 18:00      0.00      0.00    630.90    654071    486.44       427      3759     91.96    173.50      0.27     51.40    483.00     13.78     13.18
07/10 19:00      0.00      0.00    630.90    654071    482.66       387       450     90.21    234.90      0.26     57.69    271.00     13.78     13.18
07/10 20:00      0.00      0.00    630.88    653819    482.40       347       741     85.48    166.20      0.17     71.30     33.00     13.79     13.12
07/10 21:00      0.00      0.00    630.91    654197    482.38       614       125     80.53    132.50      0.40     89.18     10.00     13.78     13.18
07/10 22:00      0.00      0.00    630.90    654071    482.37       547       115     77.90    165.70      0.37     98.77      1.00     13.78     13.18
07/10 23:00      0.00      0.00    630.91    654197    482.37       352       115     76.48    182.10      0.38    100.05      1.00     13.78     13.18